sensor_id;sensor_type;location;lat;lon;timestamp;temperature;humidity
66128;DHT22;52925;52.436;-1.952;2023-07-20T00:00:59;17.70;75.80
66128;DHT22;52925;52.436;-1.952;2023-07-20T00:02:20;17.70;75.90
66128;DHT22;52925;52.436;-1.952;2023-07-20T00:03:39;17.70;75.80
66128;DHT22;52925;52.436;-1.952;2023-07-20T00:05:00;17.70;75.80
66128;DHT22;52925;52.436;-1.952;2023-07-20T00:06:22;17.80;75.80
66128;DHT22;52925;52.436;-1.952;2023-07-20T00:07:43;17.80;75.80
66128;DHT22;52925;52.436;-1.952;2023-07-20T00:09:03;17.80;75.70
66128;DHT22;52925;52.436;-1.952;2023-07-20T00:10:24;17.80;75.80
66128;DHT22;52925;52.436;-1.952;2023-07-20T00:11:48;17.80;75.70
66128;DHT22;52925;52.436;-1.952;2023-07-20T00:13:11;17.80;75.70
66128;DHT22;52925;52.436;-1.952;2023-07-20T00:14:31;17.80;75.70
66128;DHT22;52925;52.436;-1.952;2023-07-20T00:15:52;17.80;75.70
66128;DHT22;52925;52.436;-1.952;2023-07-20T00:17:12;17.80;75.80
66128;DHT22;52925;52.436;-1.952;2023-07-20T00:18:33;17.80;75.90
66128;DHT22;52925;52.436;-1.952;2023-07-20T00:19:53;17.80;75.90
66128;DHT22;52925;52.436;-1.952;2023-07-20T00:21:14;17.80;76.10
66128;DHT22;52925;52.436;-1.952;2023-07-20T00:22:35;17.80;75.90
66128;DHT22;52925;52.436;-1.952;2023-07-20T00:23:55;17.70;75.90
66128;DHT22;52925;52.436;-1.952;2023-07-20T00:25:15;17.70;76.80
66128;DHT22;52925;52.436;-1.952;2023-07-20T00:26:36;17.70;76.10
66128;DHT22;52925;52.436;-1.952;2023-07-20T00:27:56;17.70;76.20
66128;DHT22;52925;52.436;-1.952;2023-07-20T00:29:17;17.70;76.20
66128;DHT22;52925;52.436;-1.952;2023-07-20T00:30:38;17.70;76.30
66128;DHT22;52925;52.436;-1.952;2023-07-20T00:31:59;17.70;76.20
66128;DHT22;52925;52.436;-1.952;2023-07-20T00:33:18;17.70;76.30
66128;DHT22;52925;52.436;-1.952;2023-07-20T00:34:39;17.60;76.30
66128;DHT22;52925;52.436;-1.952;2023-07-20T00:35:58;17.70;76.30
66128;DHT22;52925;52.436;-1.952;2023-07-20T00:37:19;17.70;76.40
66128;DHT22;52925;52.436;-1.952;2023-07-20T00:38:40;17.70;76.30
66128;DHT22;52925;52.436;-1.952;2023-07-20T00:40:03;17.70;76.30
66128;DHT22;52925;52.436;-1.952;2023-07-20T00:41:24;17.70;76.30
66128;DHT22;52925;52.436;-1.952;2023-07-20T00:42:49;17.70;76.40
66128;DHT22;52925;52.436;-1.952;2023-07-20T00:44:14;17.70;76.40
66128;DHT22;52925;52.436;-1.952;2023-07-20T00:45:36;17.70;76.50
66128;DHT22;52925;52.436;-1.952;2023-07-20T00:46:57;17.70;76.50
66128;DHT22;52925;52.436;-1.952;2023-07-20T00:48:18;17.70;76.40
66128;DHT22;52925;52.436;-1.952;2023-07-20T00:49:38;17.70;76.40
66128;DHT22;52925;52.436;-1.952;2023-07-20T00:51:00;17.70;76.40
66128;DHT22;52925;52.436;-1.952;2023-07-20T00:52:22;17.60;76.50
66128;DHT22;52925;52.436;-1.952;2023-07-20T00:53:46;17.70;76.50
66128;DHT22;52925;52.436;-1.952;2023-07-20T00:55:07;17.60;76.60
66128;DHT22;52925;52.436;-1.952;2023-07-20T00:56:29;17.60;76.60
66128;DHT22;52925;52.436;-1.952;2023-07-20T00:57:49;17.60;76.70
66128;DHT22;52925;52.436;-1.952;2023-07-20T00:59:11;17.60;76.70
66128;DHT22;52925;52.436;-1.952;2023-07-20T01:00:32;17.60;76.80
66128;DHT22;52925;52.436;-1.952;2023-07-20T01:01:52;17.50;76.80
66128;DHT22;52925;52.436;-1.952;2023-07-20T01:03:12;17.50;76.80
66128;DHT22;52925;52.436;-1.952;2023-07-20T01:04:34;17.50;76.90
66128;DHT22;52925;52.436;-1.952;2023-07-20T01:05:59;17.50;77.10
66128;DHT22;52925;52.436;-1.952;2023-07-20T01:07:28;17.50;77.20
66128;DHT22;52925;52.436;-1.952;2023-07-20T01:09:00;17.50;77.30
66128;DHT22;52925;52.436;-1.952;2023-07-20T01:10:27;17.50;77.30
66128;DHT22;52925;52.436;-1.952;2023-07-20T01:11:54;17.50;77.40
66128;DHT22;52925;52.436;-1.952;2023-07-20T01:13:19;17.50;77.30
66128;DHT22;52925;52.436;-1.952;2023-07-20T01:14:40;17.50;77.50
66128;DHT22;52925;52.436;-1.952;2023-07-20T01:16:01;17.50;77.40
66128;DHT22;52925;52.436;-1.952;2023-07-20T01:17:21;17.50;77.40
66128;DHT22;52925;52.436;-1.952;2023-07-20T01:18:43;17.50;77.40
66128;DHT22;52925;52.436;-1.952;2023-07-20T01:20:04;17.50;77.50
66128;DHT22;52925;52.436;-1.952;2023-07-20T01:21:38;17.50;77.50
66128;DHT22;52925;52.436;-1.952;2023-07-20T01:23:20;17.50;77.50
66128;DHT22;52925;52.436;-1.952;2023-07-20T01:25:02;17.50;77.60
66128;DHT22;52925;52.436;-1.952;2023-07-20T01:26:42;17.50;77.60
66128;DHT22;52925;52.436;-1.952;2023-07-20T01:28:27;17.50;77.70
66128;DHT22;52925;52.436;-1.952;2023-07-20T01:30:08;17.50;77.70
66128;DHT22;52925;52.436;-1.952;2023-07-20T01:31:34;17.50;78.40
66128;DHT22;52925;52.436;-1.952;2023-07-20T01:32:56;17.50;77.60
66128;DHT22;52925;52.436;-1.952;2023-07-20T01:34:18;17.50;77.60
66128;DHT22;52925;52.436;-1.952;2023-07-20T01:35:41;17.50;77.60
66128;DHT22;52925;52.436;-1.952;2023-07-20T01:37:03;17.50;77.60
66128;DHT22;52925;52.436;-1.952;2023-07-20T01:38:26;17.50;77.70
66128;DHT22;52925;52.436;-1.952;2023-07-20T01:39:45;17.50;77.80
66128;DHT22;52925;52.436;-1.952;2023-07-20T01:41:07;17.50;77.80
66128;DHT22;52925;52.436;-1.952;2023-07-20T01:42:28;17.50;77.90
66128;DHT22;52925;52.436;-1.952;2023-07-20T01:43:49;17.50;77.90
66128;DHT22;52925;52.436;-1.952;2023-07-20T01:45:09;17.50;77.90
66128;DHT22;52925;52.436;-1.952;2023-07-20T01:46:32;17.50;78.00
66128;DHT22;52925;52.436;-1.952;2023-07-20T01:47:52;17.50;78.00
66128;DHT22;52925;52.436;-1.952;2023-07-20T01:49:13;17.50;78.10
66128;DHT22;52925;52.436;-1.952;2023-07-20T01:50:33;17.40;78.10
66128;DHT22;52925;52.436;-1.952;2023-07-20T01:51:54;17.40;78.10
66128;DHT22;52925;52.436;-1.952;2023-07-20T01:53:14;17.40;78.10
66128;DHT22;52925;52.436;-1.952;2023-07-20T01:54:35;17.40;78.20
66128;DHT22;52925;52.436;-1.952;2023-07-20T01:55:54;17.40;78.20
66128;DHT22;52925;52.436;-1.952;2023-07-20T01:57:15;17.40;78.20
66128;DHT22;52925;52.436;-1.952;2023-07-20T01:58:35;17.40;78.20
66128;DHT22;52925;52.436;-1.952;2023-07-20T01:59:56;17.40;78.10
66128;DHT22;52925;52.436;-1.952;2023-07-20T02:01:16;17.40;78.20
66128;DHT22;52925;52.436;-1.952;2023-07-20T02:02:38;17.40;78.40
66128;DHT22;52925;52.436;-1.952;2023-07-20T02:03:58;17.40;78.40
66128;DHT22;52925;52.436;-1.952;2023-07-20T02:05:19;17.40;78.50
66128;DHT22;52925;52.436;-1.952;2023-07-20T02:06:39;17.30;78.40
66128;DHT22;52925;52.436;-1.952;2023-07-20T02:08:00;17.40;78.60
66128;DHT22;52925;52.436;-1.952;2023-07-20T02:09:19;17.30;78.60
66128;DHT22;52925;52.436;-1.952;2023-07-20T02:10:40;17.40;78.50
66128;DHT22;52925;52.436;-1.952;2023-07-20T02:12:00;17.40;78.50
66128;DHT22;52925;52.436;-1.952;2023-07-20T02:13:21;17.30;78.60
66128;DHT22;52925;52.436;-1.952;2023-07-20T02:14:41;17.30;78.60
66128;DHT22;52925;52.436;-1.952;2023-07-20T02:16:02;17.30;78.50
66128;DHT22;52925;52.436;-1.952;2023-07-20T02:17:22;17.30;78.60
66128;DHT22;52925;52.436;-1.952;2023-07-20T02:18:45;17.30;78.80
66128;DHT22;52925;52.436;-1.952;2023-07-20T02:20:06;17.20;79.00
66128;DHT22;52925;52.436;-1.952;2023-07-20T02:21:28;17.20;79.00
66128;DHT22;52925;52.436;-1.952;2023-07-20T02:22:48;17.20;79.10
66128;DHT22;52925;52.436;-1.952;2023-07-20T02:24:09;17.20;79.10
66128;DHT22;52925;52.436;-1.952;2023-07-20T02:25:29;17.20;79.10
66128;DHT22;52925;52.436;-1.952;2023-07-20T02:26:50;17.20;79.10
66128;DHT22;52925;52.436;-1.952;2023-07-20T02:28:12;17.20;79.10
66128;DHT22;52925;52.436;-1.952;2023-07-20T02:29:34;17.20;79.20
66128;DHT22;52925;52.436;-1.952;2023-07-20T02:30:54;17.20;79.20
66128;DHT22;52925;52.436;-1.952;2023-07-20T02:32:15;17.20;79.20
66128;DHT22;52925;52.436;-1.952;2023-07-20T02:33:35;17.10;79.10
66128;DHT22;52925;52.436;-1.952;2023-07-20T02:34:57;17.10;79.40
66128;DHT22;52925;52.436;-1.952;2023-07-20T02:36:16;17.10;79.40
66128;DHT22;52925;52.436;-1.952;2023-07-20T02:37:39;17.10;79.40
66128;DHT22;52925;52.436;-1.952;2023-07-20T02:38:59;17.20;79.50
66128;DHT22;52925;52.436;-1.952;2023-07-20T02:40:20;17.20;79.40
66128;DHT22;52925;52.436;-1.952;2023-07-20T02:41:41;17.20;79.40
66128;DHT22;52925;52.436;-1.952;2023-07-20T02:43:01;17.20;79.50
66128;DHT22;52925;52.436;-1.952;2023-07-20T02:44:22;17.20;79.50
66128;DHT22;52925;52.436;-1.952;2023-07-20T02:45:42;17.10;79.50
66128;DHT22;52925;52.436;-1.952;2023-07-20T02:47:03;17.10;79.50
66128;DHT22;52925;52.436;-1.952;2023-07-20T02:48:23;17.10;79.50
66128;DHT22;52925;52.436;-1.952;2023-07-20T02:49:44;17.10;79.50
66128;DHT22;52925;52.436;-1.952;2023-07-20T02:51:05;17.10;79.50
66128;DHT22;52925;52.436;-1.952;2023-07-20T02:52:27;17.10;79.70
66128;DHT22;52925;52.436;-1.952;2023-07-20T02:53:47;17.10;79.70
66128;DHT22;52925;52.436;-1.952;2023-07-20T02:55:08;17.10;79.60
66128;DHT22;52925;52.436;-1.952;2023-07-20T02:56:29;17.10;79.70
66128;DHT22;52925;52.436;-1.952;2023-07-20T02:57:50;17.10;79.70
66128;DHT22;52925;52.436;-1.952;2023-07-20T02:59:10;17.10;79.70
66128;DHT22;52925;52.436;-1.952;2023-07-20T03:00:30;17.10;80.30
66128;DHT22;52925;52.436;-1.952;2023-07-20T03:01:50;17.10;79.60
66128;DHT22;52925;52.436;-1.952;2023-07-20T03:03:11;17.10;79.60
66128;DHT22;52925;52.436;-1.952;2023-07-20T03:04:31;17.10;79.60
66128;DHT22;52925;52.436;-1.952;2023-07-20T03:05:52;17.10;79.70
66128;DHT22;52925;52.436;-1.952;2023-07-20T03:07:15;17.10;79.80
66128;DHT22;52925;52.436;-1.952;2023-07-20T03:08:36;17.00;79.70
66128;DHT22;52925;52.436;-1.952;2023-07-20T03:09:56;17.00;79.70
66128;DHT22;52925;52.436;-1.952;2023-07-20T03:11:16;17.10;79.70
66128;DHT22;52925;52.436;-1.952;2023-07-20T03:12:36;17.10;79.60
66128;DHT22;52925;52.436;-1.952;2023-07-20T03:13:57;17.10;79.70
66128;DHT22;52925;52.436;-1.952;2023-07-20T03:15:17;17.10;79.70
66128;DHT22;52925;52.436;-1.952;2023-07-20T03:16:37;17.10;79.70
66128;DHT22;52925;52.436;-1.952;2023-07-20T03:17:57;17.10;79.70
66128;DHT22;52925;52.436;-1.952;2023-07-20T03:19:18;17.00;79.70
66128;DHT22;52925;52.436;-1.952;2023-07-20T03:20:39;17.10;79.70
66128;DHT22;52925;52.436;-1.952;2023-07-20T03:21:59;17.10;79.70
66128;DHT22;52925;52.436;-1.952;2023-07-20T03:23:20;17.10;79.60
66128;DHT22;52925;52.436;-1.952;2023-07-20T03:24:41;17.10;79.60
66128;DHT22;52925;52.436;-1.952;2023-07-20T03:26:01;17.00;79.70
66128;DHT22;52925;52.436;-1.952;2023-07-20T03:27:22;17.00;79.70
66128;DHT22;52925;52.436;-1.952;2023-07-20T03:28:42;17.00;79.70
66128;DHT22;52925;52.436;-1.952;2023-07-20T03:30:05;17.00;79.70
66128;DHT22;52925;52.436;-1.952;2023-07-20T03:31:26;17.00;80.30
66128;DHT22;52925;52.436;-1.952;2023-07-20T03:32:47;17.00;79.60
66128;DHT22;52925;52.436;-1.952;2023-07-20T03:34:08;17.00;79.70
66128;DHT22;52925;52.436;-1.952;2023-07-20T03:35:29;17.00;79.70
66128;DHT22;52925;52.436;-1.952;2023-07-20T03:36:50;17.00;79.60
66128;DHT22;52925;52.436;-1.952;2023-07-20T03:38:11;17.00;79.70
66128;DHT22;52925;52.436;-1.952;2023-07-20T03:39:32;17.00;79.70
66128;DHT22;52925;52.436;-1.952;2023-07-20T03:40:54;17.00;79.60
66128;DHT22;52925;52.436;-1.952;2023-07-20T03:42:14;17.00;79.60
66128;DHT22;52925;52.436;-1.952;2023-07-20T03:43:35;17.00;79.60
66128;DHT22;52925;52.436;-1.952;2023-07-20T03:44:55;17.00;79.60
66128;DHT22;52925;52.436;-1.952;2023-07-20T03:46:16;17.00;79.60
66128;DHT22;52925;52.436;-1.952;2023-07-20T03:47:36;17.00;79.70
66128;DHT22;52925;52.436;-1.952;2023-07-20T03:48:57;17.00;79.60
66128;DHT22;52925;52.436;-1.952;2023-07-20T03:50:17;17.00;79.70
66128;DHT22;52925;52.436;-1.952;2023-07-20T03:51:38;17.00;79.70
66128;DHT22;52925;52.436;-1.952;2023-07-20T03:52:58;17.00;79.70
66128;DHT22;52925;52.436;-1.952;2023-07-20T03:54:18;17.00;79.80
66128;DHT22;52925;52.436;-1.952;2023-07-20T03:55:40;17.00;79.70
66128;DHT22;52925;52.436;-1.952;2023-07-20T03:57:01;17.00;79.70
66128;DHT22;52925;52.436;-1.952;2023-07-20T03:58:20;16.90;79.60
66128;DHT22;52925;52.436;-1.952;2023-07-20T03:59:45;16.90;79.50
66128;DHT22;52925;52.436;-1.952;2023-07-20T04:01:05;16.90;79.60
66128;DHT22;52925;52.436;-1.952;2023-07-20T04:02:26;17.00;79.70
66128;DHT22;52925;52.436;-1.952;2023-07-20T04:03:46;17.00;79.80
66128;DHT22;52925;52.436;-1.952;2023-07-20T04:05:07;17.00;79.70
66128;DHT22;52925;52.436;-1.952;2023-07-20T04:06:27;16.90;79.60
66128;DHT22;52925;52.436;-1.952;2023-07-20T04:07:48;16.90;79.70
66128;DHT22;52925;52.436;-1.952;2023-07-20T04:09:08;16.90;79.60
66128;DHT22;52925;52.436;-1.952;2023-07-20T04:10:28;16.90;79.70
66128;DHT22;52925;52.436;-1.952;2023-07-20T04:11:50;16.90;79.70
66128;DHT22;52925;52.436;-1.952;2023-07-20T04:13:11;16.90;79.70
66128;DHT22;52925;52.436;-1.952;2023-07-20T04:14:30;16.90;79.60
66128;DHT22;52925;52.436;-1.952;2023-07-20T04:15:51;16.90;79.70
66128;DHT22;52925;52.436;-1.952;2023-07-20T04:17:12;16.90;79.70
66128;DHT22;52925;52.436;-1.952;2023-07-20T04:18:32;16.90;79.70
66128;DHT22;52925;52.436;-1.952;2023-07-20T04:19:54;16.90;79.80
66128;DHT22;52925;52.436;-1.952;2023-07-20T04:21:13;16.80;79.60
66128;DHT22;52925;52.436;-1.952;2023-07-20T04:22:34;16.80;79.50
66128;DHT22;52925;52.436;-1.952;2023-07-20T04:23:55;16.80;79.70
66128;DHT22;52925;52.436;-1.952;2023-07-20T04:25:16;16.80;79.60
66128;DHT22;52925;52.436;-1.952;2023-07-20T04:26:37;16.80;79.70
66128;DHT22;52925;52.436;-1.952;2023-07-20T04:27:59;16.80;79.70
66128;DHT22;52925;52.436;-1.952;2023-07-20T04:29:19;16.80;79.70
66128;DHT22;52925;52.436;-1.952;2023-07-20T04:30:40;16.80;79.80
66128;DHT22;52925;52.436;-1.952;2023-07-20T04:32:00;16.80;79.80
66128;DHT22;52925;52.436;-1.952;2023-07-20T04:33:22;16.80;79.80
66128;DHT22;52925;52.436;-1.952;2023-07-20T04:34:43;16.80;79.80
66128;DHT22;52925;52.436;-1.952;2023-07-20T04:36:05;16.70;80.60
66128;DHT22;52925;52.436;-1.952;2023-07-20T04:37:28;16.80;79.80
66128;DHT22;52925;52.436;-1.952;2023-07-20T04:38:48;16.80;79.80
66128;DHT22;52925;52.436;-1.952;2023-07-20T04:40:12;16.80;79.80
66128;DHT22;52925;52.436;-1.952;2023-07-20T04:41:33;16.80;79.80
66128;DHT22;52925;52.436;-1.952;2023-07-20T04:42:53;16.80;79.80
66128;DHT22;52925;52.436;-1.952;2023-07-20T04:44:16;16.80;79.80
66128;DHT22;52925;52.436;-1.952;2023-07-20T04:45:37;16.80;79.90
66128;DHT22;52925;52.436;-1.952;2023-07-20T04:46:57;16.70;79.90
66128;DHT22;52925;52.436;-1.952;2023-07-20T04:48:17;16.80;79.90
66128;DHT22;52925;52.436;-1.952;2023-07-20T04:49:45;16.80;80.00
66128;DHT22;52925;52.436;-1.952;2023-07-20T04:51:06;16.80;79.90
66128;DHT22;52925;52.436;-1.952;2023-07-20T04:52:26;16.70;80.00
66128;DHT22;52925;52.436;-1.952;2023-07-20T04:53:47;16.70;80.00
66128;DHT22;52925;52.436;-1.952;2023-07-20T04:55:07;16.70;80.10
66128;DHT22;52925;52.436;-1.952;2023-07-20T04:56:28;16.70;80.10
66128;DHT22;52925;52.436;-1.952;2023-07-20T04:57:50;16.70;80.10
66128;DHT22;52925;52.436;-1.952;2023-07-20T04:59:11;16.70;80.10
66128;DHT22;52925;52.436;-1.952;2023-07-20T05:00:32;16.70;80.20
66128;DHT22;52925;52.436;-1.952;2023-07-20T05:01:54;16.70;80.20
66128;DHT22;52925;52.436;-1.952;2023-07-20T05:03:13;16.70;80.20
66128;DHT22;52925;52.436;-1.952;2023-07-20T05:04:35;16.70;80.20
66128;DHT22;52925;52.436;-1.952;2023-07-20T05:05:56;16.70;80.30
66128;DHT22;52925;52.436;-1.952;2023-07-20T05:07:17;16.70;80.30
66128;DHT22;52925;52.436;-1.952;2023-07-20T05:08:36;16.70;80.30
66128;DHT22;52925;52.436;-1.952;2023-07-20T05:09:58;16.70;80.40
66128;DHT22;52925;52.436;-1.952;2023-07-20T05:11:18;16.70;80.40
66128;DHT22;52925;52.436;-1.952;2023-07-20T05:12:39;16.70;80.40
66128;DHT22;52925;52.436;-1.952;2023-07-20T05:13:59;16.70;80.50
66128;DHT22;52925;52.436;-1.952;2023-07-20T05:15:21;16.70;80.40
66128;DHT22;52925;52.436;-1.952;2023-07-20T05:16:42;16.70;80.40
66128;DHT22;52925;52.436;-1.952;2023-07-20T05:18:03;16.70;80.40
66128;DHT22;52925;52.436;-1.952;2023-07-20T05:19:25;16.70;80.40
66128;DHT22;52925;52.436;-1.952;2023-07-20T05:20:46;16.70;80.50
66128;DHT22;52925;52.436;-1.952;2023-07-20T05:22:07;16.70;80.30
66128;DHT22;52925;52.436;-1.952;2023-07-20T05:23:28;16.70;80.40
66128;DHT22;52925;52.436;-1.952;2023-07-20T05:24:48;16.70;80.40
66128;DHT22;52925;52.436;-1.952;2023-07-20T05:26:08;16.70;80.40
66128;DHT22;52925;52.436;-1.952;2023-07-20T05:27:28;16.70;80.50
66128;DHT22;52925;52.436;-1.952;2023-07-20T05:28:49;16.70;80.50
66128;DHT22;52925;52.436;-1.952;2023-07-20T05:30:10;16.70;80.60
66128;DHT22;52925;52.436;-1.952;2023-07-20T05:31:30;16.70;80.60
66128;DHT22;52925;52.436;-1.952;2023-07-20T05:32:53;16.70;80.50
66128;DHT22;52925;52.436;-1.952;2023-07-20T05:34:13;16.70;80.60
66128;DHT22;52925;52.436;-1.952;2023-07-20T05:35:36;16.60;80.50
66128;DHT22;52925;52.436;-1.952;2023-07-20T05:36:56;16.70;80.60
66128;DHT22;52925;52.436;-1.952;2023-07-20T05:38:16;16.70;80.70
66128;DHT22;52925;52.436;-1.952;2023-07-20T05:39:37;16.70;80.70
66128;DHT22;52925;52.436;-1.952;2023-07-20T05:41:00;16.70;80.60
66128;DHT22;52925;52.436;-1.952;2023-07-20T05:42:23;16.70;80.60
66128;DHT22;52925;52.436;-1.952;2023-07-20T05:43:42;16.70;80.50
66128;DHT22;52925;52.436;-1.952;2023-07-20T05:45:03;16.70;80.50
66128;DHT22;52925;52.436;-1.952;2023-07-20T05:46:23;16.70;80.60
66128;DHT22;52925;52.436;-1.952;2023-07-20T05:47:44;16.70;80.60
66128;DHT22;52925;52.436;-1.952;2023-07-20T05:49:05;16.70;80.50
66128;DHT22;52925;52.436;-1.952;2023-07-20T05:50:26;16.70;80.60
66128;DHT22;52925;52.436;-1.952;2023-07-20T05:51:47;16.70;80.70
66128;DHT22;52925;52.436;-1.952;2023-07-20T05:53:08;16.70;80.60
66128;DHT22;52925;52.436;-1.952;2023-07-20T05:54:27;16.70;80.70
66128;DHT22;52925;52.436;-1.952;2023-07-20T05:55:52;16.60;80.60
66128;DHT22;52925;52.436;-1.952;2023-07-20T05:57:12;16.60;81.00
66128;DHT22;52925;52.436;-1.952;2023-07-20T05:58:33;16.60;81.00
66128;DHT22;52925;52.436;-1.952;2023-07-20T05:59:53;16.60;81.10
66128;DHT22;52925;52.436;-1.952;2023-07-20T06:01:14;16.60;81.10
66128;DHT22;52925;52.436;-1.952;2023-07-20T06:02:34;16.70;81.10
66128;DHT22;52925;52.436;-1.952;2023-07-20T06:03:55;16.70;81.10
66128;DHT22;52925;52.436;-1.952;2023-07-20T06:05:16;16.70;81.10
66128;DHT22;52925;52.436;-1.952;2023-07-20T06:06:37;16.70;81.10
66128;DHT22;52925;52.436;-1.952;2023-07-20T06:07:57;16.70;81.00
66128;DHT22;52925;52.436;-1.952;2023-07-20T06:09:19;16.70;80.90
66128;DHT22;52925;52.436;-1.952;2023-07-20T06:10:39;16.70;81.10
66128;DHT22;52925;52.436;-1.952;2023-07-20T06:12:00;16.70;81.00
66128;DHT22;52925;52.436;-1.952;2023-07-20T06:13:20;16.70;81.90
66128;DHT22;52925;52.436;-1.952;2023-07-20T06:14:41;16.70;81.10
66128;DHT22;52925;52.436;-1.952;2023-07-20T06:16:01;16.70;81.90
66128;DHT22;52925;52.436;-1.952;2023-07-20T06:17:22;16.70;81.20
66128;DHT22;52925;52.436;-1.952;2023-07-20T06:18:42;16.60;81.20
66128;DHT22;52925;52.436;-1.952;2023-07-20T06:20:05;16.70;81.40
66128;DHT22;52925;52.436;-1.952;2023-07-20T06:21:27;16.70;81.30
66128;DHT22;52925;52.436;-1.952;2023-07-20T06:22:48;16.70;81.20
66128;DHT22;52925;52.436;-1.952;2023-07-20T06:24:08;16.70;81.20
66128;DHT22;52925;52.436;-1.952;2023-07-20T06:25:29;16.70;81.00
66128;DHT22;52925;52.436;-1.952;2023-07-20T06:26:48;16.70;81.20
66128;DHT22;52925;52.436;-1.952;2023-07-20T06:28:09;16.70;81.10
66128;DHT22;52925;52.436;-1.952;2023-07-20T06:29:30;16.70;81.30
66128;DHT22;52925;52.436;-1.952;2023-07-20T06:30:50;16.70;81.50
66128;DHT22;52925;52.436;-1.952;2023-07-20T06:32:10;16.60;81.50
66128;DHT22;52925;52.436;-1.952;2023-07-20T06:33:33;16.60;81.40
66128;DHT22;52925;52.436;-1.952;2023-07-20T06:34:54;16.70;81.40
66128;DHT22;52925;52.436;-1.952;2023-07-20T06:36:17;16.70;81.40
66128;DHT22;52925;52.436;-1.952;2023-07-20T06:37:38;16.70;81.40
66128;DHT22;52925;52.436;-1.952;2023-07-20T06:38:59;16.60;81.40
66128;DHT22;52925;52.436;-1.952;2023-07-20T06:40:19;16.70;81.30
66128;DHT22;52925;52.436;-1.952;2023-07-20T06:41:40;16.70;81.40
66128;DHT22;52925;52.436;-1.952;2023-07-20T06:42:59;16.70;81.50
66128;DHT22;52925;52.436;-1.952;2023-07-20T06:44:20;16.70;81.40
66128;DHT22;52925;52.436;-1.952;2023-07-20T06:45:41;16.70;81.40
66128;DHT22;52925;52.436;-1.952;2023-07-20T06:47:02;16.70;81.40
66128;DHT22;52925;52.436;-1.952;2023-07-20T06:48:22;16.70;81.40
66128;DHT22;52925;52.436;-1.952;2023-07-20T06:49:43;16.70;81.40
66128;DHT22;52925;52.436;-1.952;2023-07-20T06:51:03;16.70;81.40
66128;DHT22;52925;52.436;-1.952;2023-07-20T06:52:23;16.70;81.40
66128;DHT22;52925;52.436;-1.952;2023-07-20T06:53:44;16.70;82.10
66128;DHT22;52925;52.436;-1.952;2023-07-20T06:55:06;16.70;81.30
66128;DHT22;52925;52.436;-1.952;2023-07-20T06:56:26;16.70;81.40
66128;DHT22;52925;52.436;-1.952;2023-07-20T06:57:47;16.70;81.50
66128;DHT22;52925;52.436;-1.952;2023-07-20T06:59:07;16.70;81.60
66128;DHT22;52925;52.436;-1.952;2023-07-20T07:00:28;16.70;81.50
66128;DHT22;52925;52.436;-1.952;2023-07-20T07:01:48;16.70;81.60
66128;DHT22;52925;52.436;-1.952;2023-07-20T07:03:09;16.70;81.60
66128;DHT22;52925;52.436;-1.952;2023-07-20T07:04:29;16.70;81.50
66128;DHT22;52925;52.436;-1.952;2023-07-20T07:05:49;16.70;81.70
66128;DHT22;52925;52.436;-1.952;2023-07-20T07:07:10;16.70;81.60
66128;DHT22;52925;52.436;-1.952;2023-07-20T07:08:30;16.70;81.60
66128;DHT22;52925;52.436;-1.952;2023-07-20T07:09:52;16.70;81.60
66128;DHT22;52925;52.436;-1.952;2023-07-20T07:11:12;16.70;81.50
66128;DHT22;52925;52.436;-1.952;2023-07-20T07:12:33;16.70;81.60
66128;DHT22;52925;52.436;-1.952;2023-07-20T07:13:54;16.80;81.60
66128;DHT22;52925;52.436;-1.952;2023-07-20T07:15:13;16.70;81.50
66128;DHT22;52925;52.436;-1.952;2023-07-20T07:16:34;16.70;81.50
66128;DHT22;52925;52.436;-1.952;2023-07-20T07:17:55;16.70;81.80
66128;DHT22;52925;52.436;-1.952;2023-07-20T07:19:16;16.70;82.00
66128;DHT22;52925;52.436;-1.952;2023-07-20T07:20:36;16.60;82.00
66128;DHT22;52925;52.436;-1.952;2023-07-20T07:21:57;16.70;82.10
66128;DHT22;52925;52.436;-1.952;2023-07-20T07:23:17;16.70;82.00
66128;DHT22;52925;52.436;-1.952;2023-07-20T07:24:37;16.70;82.10
66128;DHT22;52925;52.436;-1.952;2023-07-20T07:25:58;16.70;82.20
66128;DHT22;52925;52.436;-1.952;2023-07-20T07:27:19;16.60;82.20
66128;DHT22;52925;52.436;-1.952;2023-07-20T07:28:39;16.70;82.30
66128;DHT22;52925;52.436;-1.952;2023-07-20T07:29:59;16.70;82.40
66128;DHT22;52925;52.436;-1.952;2023-07-20T07:31:19;16.70;82.40
66128;DHT22;52925;52.436;-1.952;2023-07-20T07:32:40;16.70;82.10
66128;DHT22;52925;52.436;-1.952;2023-07-20T07:34:01;16.70;82.10
66128;DHT22;52925;52.436;-1.952;2023-07-20T07:35:22;16.70;82.00
66128;DHT22;52925;52.436;-1.952;2023-07-20T07:36:41;16.80;82.10
66128;DHT22;52925;52.436;-1.952;2023-07-20T07:38:02;16.80;82.10
66128;DHT22;52925;52.436;-1.952;2023-07-20T07:39:22;16.70;82.10
66128;DHT22;52925;52.436;-1.952;2023-07-20T07:40:43;16.70;82.10
66128;DHT22;52925;52.436;-1.952;2023-07-20T07:42:05;16.70;82.30
66128;DHT22;52925;52.436;-1.952;2023-07-20T07:43:26;16.70;82.30
66128;DHT22;52925;52.436;-1.952;2023-07-20T07:44:47;16.70;82.30
66128;DHT22;52925;52.436;-1.952;2023-07-20T07:46:07;16.70;82.20
66128;DHT22;52925;52.436;-1.952;2023-07-20T07:47:28;16.70;82.40
66128;DHT22;52925;52.436;-1.952;2023-07-20T07:48:48;16.70;82.30
66128;DHT22;52925;52.436;-1.952;2023-07-20T07:50:10;16.70;82.60
66128;DHT22;52925;52.436;-1.952;2023-07-20T07:51:30;16.70;82.70
66128;DHT22;52925;52.436;-1.952;2023-07-20T07:52:51;16.70;82.70
66128;DHT22;52925;52.436;-1.952;2023-07-20T07:54:10;16.70;82.60
66128;DHT22;52925;52.436;-1.952;2023-07-20T07:55:31;16.70;82.60
66128;DHT22;52925;52.436;-1.952;2023-07-20T07:56:51;16.60;82.70
66128;DHT22;52925;52.436;-1.952;2023-07-20T07:58:14;16.60;82.70
66128;DHT22;52925;52.436;-1.952;2023-07-20T07:59:34;16.70;82.60
66128;DHT22;52925;52.436;-1.952;2023-07-20T08:00:56;16.70;82.60
66128;DHT22;52925;52.436;-1.952;2023-07-20T08:02:16;16.70;82.60
66128;DHT22;52925;52.436;-1.952;2023-07-20T08:03:37;16.60;82.50
66128;DHT22;52925;52.436;-1.952;2023-07-20T08:04:57;16.60;82.50
66128;DHT22;52925;52.436;-1.952;2023-07-20T08:06:18;16.60;82.70
66128;DHT22;52925;52.436;-1.952;2023-07-20T08:07:38;16.60;82.60
66128;DHT22;52925;52.436;-1.952;2023-07-20T08:08:59;16.60;82.30
66128;DHT22;52925;52.436;-1.952;2023-07-20T08:10:19;16.60;82.60
66128;DHT22;52925;52.436;-1.952;2023-07-20T08:11:40;16.60;82.50
66128;DHT22;52925;52.436;-1.952;2023-07-20T08:12:59;16.70;82.30
66128;DHT22;52925;52.436;-1.952;2023-07-20T08:14:22;16.70;82.50
66128;DHT22;52925;52.436;-1.952;2023-07-20T08:15:49;16.70;82.30
66128;DHT22;52925;52.436;-1.952;2023-07-20T08:17:10;16.70;82.40
66128;DHT22;52925;52.436;-1.952;2023-07-20T08:18:30;16.70;82.30
66128;DHT22;52925;52.436;-1.952;2023-07-20T08:19:52;16.70;82.40
66128;DHT22;52925;52.436;-1.952;2023-07-20T08:21:12;16.70;82.30
66128;DHT22;52925;52.436;-1.952;2023-07-20T08:22:33;16.80;82.10
66128;DHT22;52925;52.436;-1.952;2023-07-20T08:23:52;16.80;81.90
66128;DHT22;52925;52.436;-1.952;2023-07-20T08:25:13;16.80;82.00